Alexandria, Virginia
Current Conditions -  °F | °C
As of 9:52 PM on Saturday 25 Oct 2014 (Local Time) from KDCA Reporting Station
Clear Clear  
Wind Chill: 62°   Ceiling: Unl
Heat Index: 62°   Visibility: 10mi
Dew Point: 43°   Wind: 3mph
Humidity: 50%   Direction: 230°SW
Pressure: 29.75"   Gusts: NA
Location:  38.8°N, 77.04°W
Report Text: KDCA 260152Z 23003KT 10SM CLR 17/06 A2975 RMK AO2 SLP072 T01670061 $
Loading
Personal Weather Stations






























Interactive Weather Map
Tropical Storm Tracking
New forecast layout! Learn more

10-Day Weather Forecast

Advertisements
Track Severe Weather on mobile